sensor_id;sensor_type;location;lat;lon;timestamp;pressure;altitude;pressure_sealevel;temperature;humidity
83894;BME280;73920;51.902;6.374;2024-03-23T00:55:01;100959.53;;;7.67;81.23
83894;BME280;73920;51.902;6.374;2024-03-23T00:57:27;100956.88;;;7.67;81.53
83894;BME280;73920;51.902;6.374;2024-03-23T00:59:53;100965.78;;;7.66;81.40
83894;BME280;73920;51.902;6.374;2024-03-23T01:02:20;100967.50;;;7.67;81.13
83894;BME280;73920;51.902;6.374;2024-03-23T01:04:46;100952.47;;;7.66;81.33
83894;BME280;73920;51.902;6.374;2024-03-23T01:07:12;100944.53;;;7.64;81.37
83894;BME280;73920;51.902;6.374;2024-03-23T01:09:39;100943.66;;;7.64;81.73
83894;BME280;73920;51.902;6.374;2024-03-23T01:12:06;100939.28;;;7.63;81.46
83894;BME280;73920;51.902;6.374;2024-03-23T01:14:32;100944.63;;;7.63;81.62
83894;BME280;73920;51.902;6.374;2024-03-23T01:16:58;100939.34;;;7.61;81.57
83894;BME280;73920;51.902;6.374;2024-03-23T01:19:24;100941.13;;;7.61;81.47
83894;BME280;73920;51.902;6.374;2024-03-23T01:21:51;100943.78;;;7.61;81.37
83894;BME280;73920;51.902;6.374;2024-03-23T01:24:17;100943.78;;;7.61;81.74
83894;BME280;73920;51.902;6.374;2024-03-23T01:26:43;100948.19;;;7.62;81.23
83894;BME280;73920;51.902;6.374;2024-03-23T01:29:09;100945.53;;;7.62;81.51
83894;BME280;73920;51.902;6.374;2024-03-23T01:31:36;100940.22;;;7.62;81.83
83894;BME280;73920;51.902;6.374;2024-03-23T01:34:02;100940.25;;;7.60;81.56
83894;BME280;73920;51.902;6.374;2024-03-23T01:36:28;100902.22;;;7.36;81.87
83894;BME280;73920;51.902;6.374;2024-03-23T01:38:55;100933.28;;;7.58;82.13
83894;BME280;73920;51.902;6.374;2024-03-23T01:41:21;100932.47;;;7.56;81.71
83894;BME280;73920;51.902;6.374;2024-03-23T01:43:47;100931.75;;;7.52;81.50
83894;BME280;73920;51.902;6.374;2024-03-23T01:46:14;100923.69;;;7.54;81.76
83894;BME280;73920;51.902;6.374;2024-03-23T01:48:40;100916.56;;;7.54;81.60
83894;BME280;73920;51.902;6.374;2024-03-23T01:51:06;100905.06;;;7.54;81.55
83894;BME280;73920;51.902;6.374;2024-03-23T01:53:33;100909.59;;;7.52;81.63
83894;BME280;73920;51.902;6.374;2024-03-23T01:55:59;100913.22;;;7.49;81.45
83894;BME280;73920;51.902;6.374;2024-03-23T01:58:26;100903.72;;;7.43;81.44
83894;BME280;73920;51.902;6.374;2024-03-23T02:00:52;100905.63;;;7.40;81.58
83894;BME280;73920;51.902;6.374;2024-03-23T02:03:24;100902.16;;;7.38;81.53
83894;BME280;73920;51.902;6.374;2024-03-23T02:05:51;100914.59;;;7.37;81.75
83894;BME280;73920;51.902;6.374;2024-03-23T02:08:20;100908.41;;;7.37;81.69
83894;BME280;73920;51.902;6.374;2024-03-23T02:10:47;100905.69;;;7.38;81.75
83894;BME280;73920;51.902;6.374;2024-03-23T02:13:14;100896.78;;;7.39;81.72
83894;BME280;73920;51.902;6.374;2024-03-23T02:15:41;100899.44;;;7.39;82.10
83894;BME280;73920;51.902;6.374;2024-03-23T02:18:08;100907.41;;;7.39;82.07
83894;BME280;73920;51.902;6.374;2024-03-23T02:20:35;100899.56;;;7.36;81.58
83894;BME280;73920;51.902;6.374;2024-03-23T02:23:02;100890.75;;;7.34;81.91
83894;BME280;73920;51.902;6.374;2024-03-23T02:25:29;100865.03;;;7.35;81.80
83894;BME280;73920;51.902;6.374;2024-03-23T02:27:55;100866.78;;;7.36;81.52
83894;BME280;73920;51.902;6.374;2024-03-23T02:30:21;100867.69;;;7.35;81.44
83894;BME280;73920;51.902;6.374;2024-03-23T02:32:47;100866.91;;;7.33;81.94
83894;BME280;73920;51.902;6.374;2024-03-23T02:35:14;100864.25;;;7.33;81.78
83894;BME280;73920;51.902;6.374;2024-03-23T02:37:40;100869.56;;;7.33;81.99
83894;BME280;73920;51.902;6.374;2024-03-23T02:40:07;100876.69;;;7.32;82.04
83894;BME280;73920;51.902;6.374;2024-03-23T02:42:33;100878.59;;;7.29;82.12
83894;BME280;73920;51.902;6.374;2024-03-23T02:45:00;100877.84;;;7.25;82.20
83894;BME280;73920;51.902;6.374;2024-03-23T02:47:26;100879.66;;;7.25;81.77
83894;BME280;73920;51.902;6.374;2024-03-23T02:49:52;100881.56;;;7.21;82.05
83894;BME280;73920;51.902;6.374;2024-03-23T02:52:18;100872.78;;;7.19;82.09
83894;BME280;73920;51.902;6.374;2024-03-23T02:54:44;100873.75;;;7.17;82.16
83894;BME280;73920;51.902;6.374;2024-03-23T02:57:11;100871.19;;;7.15;81.98
83894;BME280;73920;51.902;6.374;2024-03-23T02:59:37;100862.34;;;7.15;81.93
83894;BME280;73920;51.902;6.374;2024-03-23T03:02:04;100871.09;;;7.17;81.92
83894;BME280;73920;51.902;6.374;2024-03-23T03:04:31;100864.91;;;7.16;82.06
83894;BME280;73920;51.902;6.374;2024-03-23T03:06:58;100865.78;;;7.17;82.23
83894;BME280;73920;51.902;6.374;2024-03-23T03:09:24;100871.06;;;7.18;82.33
83894;BME280;73920;51.902;6.374;2024-03-23T03:11:50;100870.22;;;7.16;82.34
83894;BME280;73920;51.902;6.374;2024-03-23T03:14:16;100849.38;;;7.06;82.50
83894;BME280;73920;51.902;6.374;2024-03-23T03:16:43;100865.88;;;7.15;82.26
83894;BME280;73920;51.902;6.374;2024-03-23T03:19:09;100861.47;;;7.14;82.32
83894;BME280;73920;51.902;6.374;2024-03-23T03:21:35;100859.72;;;7.13;82.66
83894;BME280;73920;51.902;6.374;2024-03-23T03:24:02;100867.69;;;7.13;82.72
83894;BME280;73920;51.902;6.374;2024-03-23T03:26:28;100865.13;;;7.12;82.71
83894;BME280;73920;51.902;6.374;2024-03-23T03:28:54;100873.88;;;7.14;82.71
83894;BME280;73920;51.902;6.374;2024-03-23T03:31:21;100869.44;;;7.14;82.51
83894;BME280;73920;51.902;6.374;2024-03-23T03:33:49;100862.38;;;7.13;82.70
83894;BME280;73920;51.902;6.374;2024-03-23T03:36:15;100857.19;;;7.10;82.88
83894;BME280;73920;51.902;6.374;2024-03-23T03:38:41;100862.47;;;7.12;82.78
83894;BME280;73920;51.902;6.374;2024-03-23T03:41:08;100864.37;;;7.08;82.92
83894;BME280;73920;51.902;6.374;2024-03-23T03:43:34;100867.09;;;7.07;82.91
83894;BME280;73920;51.902;6.374;2024-03-23T03:46:01;100860.91;;;7.06;82.80
83894;BME280;73920;51.902;6.374;2024-03-23T03:48:29;100859.97;;;7.07;83.01
83894;BME280;73920;51.902;6.374;2024-03-23T03:50:55;100854.66;;;7.07;83.13
83894;BME280;73920;51.902;6.374;2024-03-23T03:53:21;100852.12;;;7.04;82.93
83894;BME280;73920;51.902;6.374;2024-03-23T03:55:49;100844.19;;;7.03;83.19
83894;BME280;73920;51.902;6.374;2024-03-23T03:58:15;100825.91;;;6.95;83.26
83894;BME280;73920;51.902;6.374;2024-03-23T04:00:41;100846.00;;;7.02;83.40
83894;BME280;73920;51.902;6.374;2024-03-23T04:03:07;100843.34;;;7.02;82.97
83894;BME280;73920;51.902;6.374;2024-03-23T04:05:34;100839.75;;;7.03;83.34
83894;BME280;73920;51.902;6.374;2024-03-23T04:08:00;100837.19;;;7.02;83.42
83894;BME280;73920;51.902;6.374;2024-03-23T04:10:26;100838.00;;;7.02;83.39
83894;BME280;73920;51.902;6.374;2024-03-23T04:12:53;100833.69;;;7.00;83.20
83894;BME280;73920;51.902;6.374;2024-03-23T04:15:20;100845.31;;;6.97;83.39
83894;BME280;73920;51.902;6.374;2024-03-23T04:17:46;100846.28;;;6.94;83.83
83894;BME280;73920;51.902;6.374;2024-03-23T04:20:12;100839.31;;;6.92;83.76
83894;BME280;73920;51.902;6.374;2024-03-23T04:22:39;100832.47;;;6.86;83.90
83894;BME280;73920;51.902;6.374;2024-03-23T04:25:06;100833.63;;;6.79;83.95
83894;BME280;73920;51.902;6.374;2024-03-23T04:27:35;100836.28;;;6.79;84.12
83894;BME280;73920;51.902;6.374;2024-03-23T04:30:02;100828.44;;;6.76;83.93
83894;BME280;73920;51.902;6.374;2024-03-23T04:32:29;100827.66;;;6.73;84.06
83894;BME280;73920;51.902;6.374;2024-03-23T04:34:55;100838.28;;;6.73;84.17
83894;BME280;73920;51.902;6.374;2024-03-23T04:37:21;100831.41;;;6.69;84.23
83894;BME280;73920;51.902;6.374;2024-03-23T04:39:48;100837.66;;;6.66;84.35
83894;BME280;73920;51.902;6.374;2024-03-23T04:42:15;100834.28;;;6.63;84.31
83894;BME280;73920;51.902;6.374;2024-03-23T04:44:42;100844.22;;;6.58;84.39
83894;BME280;73920;51.902;6.374;2024-03-23T04:47:09;100829.38;;;6.52;84.67
83894;BME280;73920;51.902;6.374;2024-03-23T04:49:35;100833.13;;;6.47;84.85
83894;BME280;73920;51.902;6.374;2024-03-23T04:52:01;100821.81;;;6.41;84.76
83894;BME280;73920;51.902;6.374;2024-03-23T04:54:27;100830.88;;;6.36;84.75
83894;BME280;73920;51.902;6.374;2024-03-23T04:56:53;100832.84;;;6.31;84.72
83894;BME280;73920;51.902;6.374;2024-03-23T04:59:20;100828.53;;;6.28;85.01
83894;BME280;73920;51.902;6.374;2024-03-23T05:01:46;100833.13;;;6.23;85.03
83894;BME280;73920;51.902;6.374;2024-03-23T05:04:12;100839.47;;;6.19;85.25
83894;BME280;73920;51.902;6.374;2024-03-23T05:06:38;100825.62;;;6.11;85.17
83894;BME280;73920;51.902;6.374;2024-03-23T05:09:05;100831.09;;;6.07;85.27
83894;BME280;73920;51.902;6.374;2024-03-23T05:11:31;100826.94;;;6.00;85.37
83894;BME280;73920;51.902;6.374;2024-03-23T05:13:57;100833.25;;;5.96;85.46
83894;BME280;73920;51.902;6.374;2024-03-23T05:16:23;100829.84;;;5.92;85.60
83894;BME280;73920;51.902;6.374;2024-03-23T05:18:50;100827.31;;;5.89;85.39
83894;BME280;73920;51.902;6.374;2024-03-23T05:21:16;100812.53;;;5.80;85.72
83894;BME280;73920;51.902;6.374;2024-03-23T05:23:42;100831.88;;;5.84;85.79
83894;BME280;73920;51.902;6.374;2024-03-23T05:26:09;100834.63;;;5.81;85.61
83894;BME280;73920;51.902;6.374;2024-03-23T05:28:35;100840.97;;;5.77;86.35
83894;BME280;73920;51.902;6.374;2024-03-23T05:31:01;100833.91;;;5.76;86.02
83894;BME280;73920;51.902;6.374;2024-03-23T05:33:28;100836.69;;;5.73;86.13
83894;BME280;73920;51.902;6.374;2024-03-23T05:35:57;100831.47;;;5.71;86.20
83894;BME280;73920;51.902;6.374;2024-03-23T05:38:24;100827.97;;;5.69;86.17
83894;BME280;73920;51.902;6.374;2024-03-23T05:40:55;100828.03;;;5.68;86.23
83894;BME280;73920;51.902;6.374;2024-03-23T05:43:22;100833.37;;;5.66;86.38
83894;BME280;73920;51.902;6.374;2024-03-23T05:45:57;100831.66;;;5.65;86.37
83894;BME280;73920;51.902;6.374;2024-03-23T05:48:24;100836.09;;;5.65;86.39
83894;BME280;73920;51.902;6.374;2024-03-23T05:50:51;100841.47;;;5.63;86.37
83894;BME280;73920;51.902;6.374;2024-03-23T05:53:18;100847.63;;;5.64;86.48
83894;BME280;73920;51.902;6.374;2024-03-23T05:55:45;100840.53;;;5.64;86.70
83894;BME280;73920;51.902;6.374;2024-03-23T05:58:12;100841.38;;;5.65;86.57
83894;BME280;73920;51.902;6.374;2024-03-23T06:00:38;100844.91;;;5.65;86.65
83894;BME280;73920;51.902;6.374;2024-03-23T06:03:05;100842.22;;;5.67;86.74
83894;BME280;73920;51.902;6.374;2024-03-23T06:05:31;100845.66;;;5.69;86.64
83894;BME280;73920;51.902;6.374;2024-03-23T06:07:57;100848.13;;;5.75;86.94
83894;BME280;73920;51.902;6.374;2024-03-23T06:10:23;100845.19;;;5.82;86.94
83894;BME280;73920;51.902;6.374;2024-03-23T06:12:49;100838.84;;;5.88;86.72
83894;BME280;73920;51.902;6.374;2024-03-23T06:15:16;100835.28;;;5.89;86.65
83894;BME280;73920;51.902;6.374;2024-03-23T06:17:42;100844.91;;;5.91;86.54
83894;BME280;73920;51.902;6.374;2024-03-23T06:20:09;100819.59;;;5.81;86.47
83894;BME280;73920;51.902;6.374;2024-03-23T06:22:36;100830.50;;;5.99;86.32
83894;BME280;73920;51.902;6.374;2024-03-23T06:25:03;100842.00;;;5.99;86.23
83894;BME280;73920;51.902;6.374;2024-03-23T06:27:29;100833.16;;;5.99;86.11
83894;BME280;73920;51.902;6.374;2024-03-23T06:29:56;100839.38;;;5.98;85.88
83894;BME280;73920;51.902;6.374;2024-03-23T06:32:22;100844.63;;;5.99;85.92
83894;BME280;73920;51.902;6.374;2024-03-23T06:34:51;100849.94;;;5.99;86.08
83894;BME280;73920;51.902;6.374;2024-03-23T06:37:18;100853.41;;;6.01;85.92
83894;BME280;73920;51.902;6.374;2024-03-23T06:39:46;100840.00;;;6.04;85.90
83894;BME280;73920;51.902;6.374;2024-03-23T06:42:12;100838.16;;;6.08;85.73
83894;BME280;73920;51.902;6.374;2024-03-23T06:44:39;100851.94;;;6.17;85.88
83894;BME280;73920;51.902;6.374;2024-03-23T06:47:05;100850.44;;;6.33;85.63
83894;BME280;73920;51.902;6.374;2024-03-23T06:49:31;100849.06;;;6.47;85.10
83894;BME280;73920;51.902;6.374;2024-03-23T06:51:58;100849.75;;;6.52;84.75
83894;BME280;73920;51.902;6.374;2024-03-23T06:54:24;100852.41;;;6.52;84.39
83894;BME280;73920;51.902;6.374;2024-03-23T06:56:51;100848.13;;;6.48;84.34
83894;BME280;73920;51.902;6.374;2024-03-23T06:59:17;100861.31;;;6.51;84.28
83894;BME280;73920;51.902;6.374;2024-03-23T07:01:43;100860.09;;;6.59;84.27
83894;BME280;73920;51.902;6.374;2024-03-23T07:04:09;100855.41;;;6.66;83.51
83894;BME280;73920;51.902;6.374;2024-03-23T07:06:43;100849.16;;;6.67;83.25
83894;BME280;73920;51.902;6.374;2024-03-23T07:09:09;100857.87;;;6.70;83.55
83894;BME280;73920;51.902;6.374;2024-03-23T07:11:35;100848.75;;;6.77;82.98
83894;BME280;73920;51.902;6.374;2024-03-23T07:14:01;100851.19;;;6.83;82.65
83894;BME280;73920;51.902;6.374;2024-03-23T07:16:27;100847.53;;;6.86;82.60
83894;BME280;73920;51.902;6.374;2024-03-23T07:18:54;100845.56;;;6.91;82.36
83894;BME280;73920;51.902;6.374;2024-03-23T07:21:20;100848.00;;;6.97;82.44
83894;BME280;73920;51.902;6.374;2024-03-23T07:23:46;100848.47;;;7.07;81.94
83894;BME280;73920;51.902;6.374;2024-03-23T07:26:12;100845.16;;;7.23;81.99
83894;BME280;73920;51.902;6.374;2024-03-23T07:28:39;100849.12;;;7.55;81.79
83894;BME280;73920;51.902;6.374;2024-03-23T07:31:07;100838.62;;;7.72;80.54
83894;BME280;73920;51.902;6.374;2024-03-23T07:33:33;100844.28;;;7.85;79.66
83894;BME280;73920;51.902;6.374;2024-03-23T07:36:00;100840.50;;;7.90;79.67
83894;BME280;73920;51.902;6.374;2024-03-23T07:38:29;100817.88;;;7.80;79.25
83894;BME280;73920;51.902;6.374;2024-03-23T07:43:31;100838.94;;;8.25;78.40
83894;BME280;73920;51.902;6.374;2024-03-23T07:45:58;100836.03;;;8.31;77.54
83894;BME280;73920;51.902;6.374;2024-03-23T07:48:25;100847.69;;;8.29;77.27
83894;BME280;73920;51.902;6.374;2024-03-23T07:51:00;100843.31;;;8.26;77.95
83894;BME280;73920;51.902;6.374;2024-03-23T07:53:29;100842.31;;;8.10;76.82
83894;BME280;73920;51.902;6.374;2024-03-23T07:56:07;100845.62;;;7.95;78.05
83894;BME280;73920;51.902;6.374;2024-03-23T07:58:34;100847.91;;;7.84;77.84
83894;BME280;73920;51.902;6.374;2024-03-23T08:01:06;100843.03;;;7.73;78.09
83894;BME280;73920;51.902;6.374;2024-03-23T08:03:32;100803.09;;;7.53;77.95
83894;BME280;73920;51.902;6.374;2024-03-23T08:06:06;100838.97;;;7.65;77.78
83894;BME280;73920;51.902;6.374;2024-03-23T08:08:31;100841.66;;;7.63;77.48
83894;BME280;73920;51.902;6.374;2024-03-23T08:10:57;100848.00;;;7.61;77.02
83894;BME280;73920;51.902;6.374;2024-03-23T08:13:24;100847.34;;;7.56;76.70
83894;BME280;73920;51.902;6.374;2024-03-23T08:15:50;100846.16;;;7.63;76.68
83894;BME280;73920;51.902;6.374;2024-03-23T08:18:16;100844.41;;;8.22;75.63
83894;BME280;73920;51.902;6.374;2024-03-23T08:20:42;100832.31;;;8.92;74.37
83894;BME280;73920;51.902;6.374;2024-03-23T08:23:09;100836.03;;;9.59;72.26
83894;BME280;73920;51.902;6.374;2024-03-23T08:25:35;100828.41;;;10.20;70.59
83894;BME280;73920;51.902;6.374;2024-03-23T08:28:02;100837.84;;;10.76;69.30
83894;BME280;73920;51.902;6.374;2024-03-23T08:30:28;100823.34;;;11.27;67.73
83894;BME280;73920;51.902;6.374;2024-03-23T08:32:54;100834.66;;;11.62;66.75
83894;BME280;73920;51.902;6.374;2024-03-23T08:35:21;100824.06;;;11.90;64.84
83894;BME280;73920;51.902;6.374;2024-03-23T08:37:47;100823.91;;;12.07;63.07
83894;BME280;73920;51.902;6.374;2024-03-23T08:40:13;100831.84;;;12.23;62.77
83894;BME280;73920;51.902;6.374;2024-03-23T08:42:40;100836.63;;;12.04;61.06
83894;BME280;73920;51.902;6.374;2024-03-23T08:45:07;100833.13;;;11.73;61.96
83894;BME280;73920;51.902;6.374;2024-03-23T08:47:36;100817.13;;;11.26;61.73
83894;BME280;73920;51.902;6.374;2024-03-23T08:50:03;100839.59;;;11.08;64.30
83894;BME280;73920;51.902;6.374;2024-03-23T08:52:29;100833.91;;;10.99;63.31
83894;BME280;73920;51.902;6.374;2024-03-23T08:54:56;100839.75;;;10.90;65.19
83894;BME280;73920;51.902;6.374;2024-03-23T08:57:23;100839.75;;;11.05;64.29
83894;BME280;73920;51.902;6.374;2024-03-23T08:59:50;100846.84;;;11.06;64.04
83894;BME280;73920;51.902;6.374;2024-03-23T09:02:16;100835.72;;;10.98;63.40
83894;BME280;73920;51.902;6.374;2024-03-23T09:04:43;100839.06;;;10.86;61.31
83894;BME280;73920;51.902;6.374;2024-03-23T09:07:10;100835.25;;;10.90;59.71
83894;BME280;73920;51.902;6.374;2024-03-23T09:09:38;100828.53;;;10.83;60.30
83894;BME280;73920;51.902;6.374;2024-03-23T09:12:05;100839.69;;;11.52;61.29
83894;BME280;73920;51.902;6.374;2024-03-23T09:14:33;100828.81;;;12.43;57.70
83894;BME280;73920;51.902;6.374;2024-03-23T09:17:00;100834.84;;;12.61;55.48
83894;BME280;73920;51.902;6.374;2024-03-23T09:19:29;100828.69;;;12.02;57.13
83894;BME280;73920;51.902;6.374;2024-03-23T09:21:56;100829.63;;;12.01;58.18
83894;BME280;73920;51.902;6.374;2024-03-23T09:24:22;100830.03;;;12.23;57.79
83894;BME280;73920;51.902;6.374;2024-03-23T09:26:48;100833.31;;;12.14;55.68
83894;BME280;73920;51.902;6.374;2024-03-23T09:29:16;100824.50;;;12.69;56.97
83894;BME280;73920;51.902;6.374;2024-03-23T09:31:43;100819.41;;;13.34;57.23
83894;BME280;73920;51.902;6.374;2024-03-23T09:34:09;100818.81;;;13.28;54.16
83894;BME280;73920;51.902;6.374;2024-03-23T09:36:35;100808.25;;;13.13;54.06
83894;BME280;73920;51.902;6.374;2024-03-23T09:39:02;100807.94;;;13.03;53.48
83894;BME280;73920;51.902;6.374;2024-03-23T09:41:28;100818.47;;;12.65;52.82
83894;BME280;73920;51.902;6.374;2024-03-23T09:43:54;100809.53;;;12.08;52.92
83894;BME280;73920;51.902;6.374;2024-03-23T09:46:21;100806.75;;;11.66;53.47
83894;BME280;73920;51.902;6.374;2024-03-23T09:48:48;100805.66;;;11.24;54.29
83894;BME280;73920;51.902;6.374;2024-03-23T09:51:14;100815.16;;;10.99;55.05
83894;BME280;73920;51.902;6.374;2024-03-23T09:53:41;100815.06;;;10.69;55.68
83894;BME280;73920;51.902;6.374;2024-03-23T09:56:08;100811.50;;;10.53;58.25
83894;BME280;73920;51.902;6.374;2024-03-23T09:58:34;100809.19;;;10.62;57.95
83894;BME280;73920;51.902;6.374;2024-03-23T10:01:00;100811.34;;;10.56;59.07
83894;BME280;73920;51.902;6.374;2024-03-23T10:03:27;100807.38;;;10.47;59.53
83894;BME280;73920;51.902;6.374;2024-03-23T10:06:00;100812.94;;;10.43;58.71
83894;BME280;73920;51.902;6.374;2024-03-23T10:08:29;100803.50;;;11.00;59.60
83894;BME280;73920;51.902;6.374;2024-03-23T10:10:55;100799.78;;;12.07;57.04
83894;BME280;73920;51.902;6.374;2024-03-23T10:13:26;100799.75;;;12.78;52.83
83894;BME280;73920;51.902;6.374;2024-03-23T10:15:57;100802.84;;;12.72;52.74
83894;BME280;73920;51.902;6.374;2024-03-23T10:18:24;100807.41;;;12.98;53.46
83894;BME280;73920;51.902;6.374;2024-03-23T10:23:23;100817.47;;;11.96;53.25
83894;BME280;73920;51.902;6.374;2024-03-23T10:25:49;100811.88;;;11.25;55.74
83894;BME280;73920;51.902;6.374;2024-03-23T10:28:15;100823.78;;;10.72;58.66
83894;BME280;73920;51.902;6.374;2024-03-23T10:30:41;100819.41;;;10.38;60.76
83894;BME280;73920;51.902;6.374;2024-03-23T10:33:11;100825.59;;;10.23;61.10
83894;BME280;73920;51.902;6.374;2024-03-23T10:35:38;100792.47;;;10.59;61.80
83894;BME280;73920;51.902;6.374;2024-03-23T10:38:05;100808.12;;;11.73;59.03
83894;BME280;73920;51.902;6.374;2024-03-23T10:40:34;100815.56;;;12.82;57.22
83894;BME280;73920;51.902;6.374;2024-03-23T10:43:02;100814.50;;;13.92;55.51
83894;BME280;73920;51.902;6.374;2024-03-23T10:45:29;100805.97;;;14.87;52.26
83894;BME280;73920;51.902;6.374;2024-03-23T10:47:56;100794.25;;;15.35;48.68
83894;BME280;73920;51.902;6.374;2024-03-23T10:50:23;100798.91;;;15.57;48.65
83894;BME280;73920;51.902;6.374;2024-03-23T10:52:49;100803.25;;;16.16;48.22
83894;BME280;73920;51.902;6.374;2024-03-23T10:55:19;100796.91;;;16.51;45.80
83894;BME280;73920;51.902;6.374;2024-03-23T10:58:05;100800.13;;;16.56;44.52
83894;BME280;73920;51.902;6.374;2024-03-23T11:00:32;100794.13;;;16.75;45.47
83894;BME280;73920;51.902;6.374;2024-03-23T11:02:58;100807.22;;;16.79;42.64
83894;BME280;73920;51.902;6.374;2024-03-23T11:05:33;100794.19;;;16.40;44.36
83894;BME280;73920;51.902;6.374;2024-03-23T11:08:00;100790.47;;;15.61;45.69
83894;BME280;73920;51.902;6.374;2024-03-23T11:10:31;100822.78;;;14.27;47.12
83894;BME280;73920;51.902;6.374;2024-03-23T11:12:58;100815.66;;;12.81;51.75
83894;BME280;73920;51.902;6.374;2024-03-23T11:15:24;100806.09;;;11.92;55.35
83894;BME280;73920;51.902;6.374;2024-03-23T11:20:32;100802.13;;;11.54;57.62
83894;BME280;73920;51.902;6.374;2024-03-23T11:22:59;100803.81;;;12.00;58.09
83894;BME280;73920;51.902;6.374;2024-03-23T11:25:27;100800.38;;;12.55;55.30
83894;BME280;73920;51.902;6.374;2024-03-23T11:27:55;100797.19;;;13.17;55.73
83894;BME280;73920;51.902;6.374;2024-03-23T11:30:26;100787.81;;;13.76;53.39
83894;BME280;73920;51.902;6.374;2024-03-23T11:32:55;100793.09;;;14.16;54.25
83894;BME280;73920;51.902;6.374;2024-03-23T11:35:30;100793.88;;;14.43;51.32
83894;BME280;73920;51.902;6.374;2024-03-23T11:38:05;100784.31;;;14.39;50.13
83894;BME280;73920;51.902;6.374;2024-03-23T11:40:33;100780.09;;;14.48;51.89
83894;BME280;73920;51.902;6.374;2024-03-23T11:43:01;100779.31;;;14.08;50.12
83894;BME280;73920;51.902;6.374;2024-03-23T11:45:28;100771.34;;;13.68;50.85
83894;BME280;73920;51.902;6.374;2024-03-23T11:50:30;100770.13;;;13.20;51.98
83894;BME280;73920;51.902;6.374;2024-03-23T11:58:11;100753.88;;;12.68;51.18
83894;BME280;73920;51.902;6.374;2024-03-23T12:00:37;100770.22;;;12.37;51.50
83894;BME280;73920;51.902;6.374;2024-03-23T12:03:04;100759.37;;;11.82;51.69
83894;BME280;73920;51.902;6.374;2024-03-23T12:05:32;100762.47;;;11.60;54.60
83894;BME280;73920;51.902;6.374;2024-03-23T12:10:35;100752.50;;;11.92;55.18
83894;BME280;73920;51.902;6.374;2024-03-23T12:13:01;100748.87;;;12.21;51.74
83894;BME280;73920;51.902;6.374;2024-03-23T12:15:27;100752.03;;;12.28;49.40
83894;BME280;73920;51.902;6.374;2024-03-23T12:18:09;100752.00;;;11.86;48.90
83894;BME280;73920;51.902;6.374;2024-03-23T12:20:37;100767.62;;;11.33;50.51
83894;BME280;73920;51.902;6.374;2024-03-23T12:23:21;100766.37;;;11.09;51.80
83894;BME280;73920;51.902;6.374;2024-03-23T12:25:49;100754.31;;;11.62;52.34
83894;BME280;73920;51.902;6.374;2024-03-23T12:28:15;100754.56;;;11.87;48.90
83894;BME280;73920;51.902;6.374;2024-03-23T12:30:41;100756.97;;;11.48;50.48
83894;BME280;73920;51.902;6.374;2024-03-23T12:33:08;100756.09;;;11.17;52.84
83894;BME280;73920;51.902;6.374;2024-03-23T12:35:34;100770.00;;;11.08;55.00
83894;BME280;73920;51.902;6.374;2024-03-23T12:38:01;100772.09;;;11.03;55.44
83894;BME280;73920;51.902;6.374;2024-03-23T12:40:27;100762.69;;;10.96;55.97
83894;BME280;73920;51.902;6.374;2024-03-23T12:42:53;100772.13;;;10.88;55.43
83894;BME280;73920;51.902;6.374;2024-03-23T12:45:20;100766.16;;;10.82;56.00
83894;BME280;73920;51.902;6.374;2024-03-23T12:47:46;100772.00;;;10.89;57.10
83894;BME280;73920;51.902;6.374;2024-03-23T12:50:12;100771.12;;;11.04;58.27
83894;BME280;73920;51.902;6.374;2024-03-23T12:52:39;100779.16;;;11.04;59.38
83894;BME280;73920;51.902;6.374;2024-03-23T12:55:06;100772.63;;;10.63;59.55
83894;BME280;73920;51.902;6.374;2024-03-23T12:57:32;100768.72;;;10.37;62.11
83894;BME280;73920;51.902;6.374;2024-03-23T12:59:59;100762.06;;;10.28;62.71
83894;BME280;73920;51.902;6.374;2024-03-23T13:02:26;100765.25;;;10.19;59.22
83894;BME280;73920;51.902;6.374;2024-03-23T13:04:54;100746.53;;;10.19;61.21
83894;BME280;73920;51.902;6.374;2024-03-23T13:07:29;100748.09;;;10.23;60.10
83894;BME280;73920;51.902;6.374;2024-03-23T13:09:55;100741.97;;;10.21;59.27
83894;BME280;73920;51.902;6.374;2024-03-23T13:12:21;100749.63;;;10.27;59.35
83894;BME280;73920;51.902;6.374;2024-03-23T13:14:47;100746.53;;;10.35;58.81
83894;BME280;73920;51.902;6.374;2024-03-23T13:17:14;100752.75;;;10.35;57.28
83894;BME280;73920;51.902;6.374;2024-03-23T13:19:40;100749.56;;;10.29;59.25
83894;BME280;73920;51.902;6.374;2024-03-23T13:22:06;100760.28;;;10.12;59.89
83894;BME280;73920;51.902;6.374;2024-03-23T13:24:33;100755.66;;;10.15;60.83
83894;BME280;73920;51.902;6.374;2024-03-23T13:26:59;100741.75;;;10.09;61.67
83894;BME280;73920;51.902;6.374;2024-03-23T13:29:26;100737.00;;;10.14;62.24
83894;BME280;73920;51.902;6.374;2024-03-23T13:31:52;100734.88;;;10.20;61.08
83894;BME280;73920;51.902;6.374;2024-03-23T13:34:18;100724.75;;;10.27;59.65
83894;BME280;73920;51.902;6.374;2024-03-23T13:36:45;100731.38;;;10.35;60.84
83894;BME280;73920;51.902;6.374;2024-03-23T13:39:12;100718.53;;;10.26;57.42
83894;BME280;73920;51.902;6.374;2024-03-23T13:41:40;100717.16;;;10.19;59.02
83894;BME280;73920;51.902;6.374;2024-03-23T13:44:07;100720.94;;;10.15;56.73
83894;BME280;73920;51.902;6.374;2024-03-23T13:46:33;100694.75;;;10.22;59.04
83894;BME280;73920;51.902;6.374;2024-03-23T13:49:00;100725.53;;;10.45;56.61
83894;BME280;73920;51.902;6.374;2024-03-23T13:51:26;100729.25;;;10.73;58.02
83894;BME280;73920;51.902;6.374;2024-03-23T13:53:56;100736.22;;;10.76;57.54
83894;BME280;73920;51.902;6.374;2024-03-23T13:56:25;100720.47;;;10.56;50.75
83894;BME280;73920;51.902;6.374;2024-03-23T13:58:51;100709.22;;;10.49;54.19
83894;BME280;73920;51.902;6.374;2024-03-23T14:01:18;100714.41;;;10.52;53.32
83894;BME280;73920;51.902;6.374;2024-03-23T14:03:45;100723.56;;;10.48;51.37
83894;BME280;73920;51.902;6.374;2024-03-23T14:06:11;100734.84;;;10.38;52.33